Time;durP1;ratioP1;P1;durP2;ratioP2;P2;SDS_P1;SDS_P2;PMS_P1;PMS_P2;Temp;Humidity;BMP_temperature;BMP_pressure;BME280_temperature;BME280_humidity;BME280_pressure;Samples;Min_cycle;Max_cycle;Signal;HPM_P1;HPM_P2
2023/08/20 00:00:03;;;;;;;7.10;3.70;;;;;;;26.96;92.50;100213.34;5015145;28;20053;-55
2023/08/20 00:02:35;;;;;;;5.87;3.73;;;;;;;26.83;92.97;100223.38;5024820;28;20049;-55
2023/08/20 00:05:06;;;;;;;5.47;3.70;;;;;;;26.65;93.71;100215.94;5015233;28;20408;-55
2023/08/20 00:07:38;;;;;;;7.47;3.57;;;;;;;26.62;94.00;100221.56;5025183;28;20091;-55
2023/08/20 00:10:11;;;;;;;6.43;3.77;;;;;;;26.56;94.50;100211.38;5015148;28;20049;-55
2023/08/20 00:12:42;;;;;;;9.10;3.70;;;;;;;26.60;94.87;100211.94;5021927;28;20568;-55
2023/08/20 00:15:12;;;;;;;11.57;4.10;;;;;;;26.62;94.74;100213.53;5015074;28;20048;-56
2023/08/20 00:17:43;;;;;;;5.70;3.30;;;;;;;26.71;94.69;100194.94;5006787;28;20479;-57
2023/08/20 00:20:16;;;;;;;10.33;3.80;;;;;;;26.45;94.04;100133.69;4995049;28;20156;-57
2023/08/20 00:22:47;;;;;;;7.10;3.77;;;;;;;26.89;94.55;100190.72;5008043;28;20041;-54
2023/08/20 00:25:20;;;;;;;9.37;3.57;;;;;;;26.95;93.92;100186.66;5001004;28;20052;-55
2023/08/20 00:27:50;;;;;;;7.20;3.60;;;;;;;27.01;94.19;100189.66;5019545;28;20041;-55
2023/08/20 00:30:21;;;;;;;6.47;3.43;;;;;;;26.89;93.63;100164.75;4992166;28;20045;-56
2023/08/20 00:32:52;;;;;;;5.63;3.40;;;;;;;26.90;93.45;100187.03;5020381;28;20083;-55
2023/08/20 00:35:23;;;;;;;7.00;3.77;;;;;;;26.79;93.96;100176.41;5014389;28;20094;-55
2023/08/20 00:37:54;;;;;;;5.23;3.40;;;;;;;26.67;94.27;100171.09;5018256;28;20152;-56
2023/08/20 00:40:26;;;;;;;6.43;3.57;;;;;;;26.45;94.61;100144.41;5022043;28;20063;-55
2023/08/20 00:42:57;;;;;;;5.67;3.27;;;;;;;26.89;94.65;100174.63;5012108;28;20053;-55
2023/08/20 00:45:29;;;;;;;7.43;3.77;;;;;;;27.11;95.14;100174.47;5022339;28;20056;-56
2023/08/20 00:48:00;;;;;;;11.40;3.50;;;;;;;27.36;94.52;100168.78;5004492;28;20045;-55
2023/08/20 00:50:31;;;;;;;6.80;3.50;;;;;;;27.46;92.59;100167.84;5006507;28;20041;-55
2023/08/20 00:53:02;;;;;;;8.83;3.50;;;;;;;27.43;92.28;100173.50;4996273;28;20081;-55
2023/08/20 00:55:34;;;;;;;6.40;3.30;;;;;;;27.27;91.50;100174.00;5007420;28;20068;-55
2023/08/20 00:58:05;;;;;;;7.43;3.43;;;;;;;27.16;91.94;100170.50;4995402;28;20388;-55
2023/08/20 01:00:36;;;;;;;6.57;4.40;;;;;;;27.23;92.50;100174.38;5005153;28;20053;-54
2023/08/20 01:03:07;;;;;;;8.67;4.00;;;;;;;27.43;92.27;100173.50;4995192;28;20060;-56
2023/08/20 01:05:52;;;;;;;5.83;3.00;;;;;;;27.63;91.31;100168.19;5005069;28;20435;-55
2023/08/20 01:08:33;;;;;;;5.43;3.10;;;;;;;27.89;90.18;100180.16;4994910;28;20388;-55
2023/08/20 01:11:12;;;;;;;5.93;2.77;;;;;;;27.94;88.92;100177.88;5003189;28;20534;-55
2023/08/20 01:13:41;;;;;;;;;;;;;;;28.00;87.86;100181.00;5015011;28;20065;-57
2023/08/20 01:16:12;;;;;;;3.87;2.33;;;;;;;28.09;87.62;100169.44;5003890;28;19924;-56
2023/08/20 01:18:43;;;;;;;6.07;2.73;;;;;;;28.09;87.25;100172.13;5014361;28;20056;-57
2023/08/20 01:21:39;;;;;;;4.67;2.63;;;;;;;28.20;86.71;100171.97;5015158;28;20041;-57
2023/08/20 01:24:22;;;;;;;5.50;2.60;;;;;;;28.32;85.68;100164.63;5014959;28;20049;-56
2023/08/20 01:27:09;;;;;;;5.90;3.03;;;;;;;28.42;84.80;100170.00;5012753;28;20045;-55
2023/08/20 01:29:42;;;;;;;9.43;3.00;;;;;;;28.57;85.81;100163.22;5024169;28;20599;-55
2023/08/20 01:32:14;;;;;;;5.67;3.03;;;;;;;28.45;83.87;100115.97;5017096;28;20205;-56
2023/08/20 01:34:45;;;;;;;3.23;2.10;;;;;;;28.63;82.26;100157.28;5028259;28;20114;-57
2023/08/20 01:37:16;;;;;;;4.40;2.33;;;;;;;28.62;82.00;100155.56;5017619;28;20422;-56
2023/08/20 01:39:46;;;;;;;5.70;3.57;;;;;;;28.55;81.85;100149.06;5027825;28;20150;-54
2023/08/20 01:42:17;;;;;;;8.27;3.83;;;;;;;28.43;82.98;100117.94;5018037;28;20375;-55
2023/08/20 01:44:49;;;;;;;5.20;2.70;;;;;;;28.86;81.59;100151.56;5019401;28;20048;-55
2023/08/20 01:47:20;;;;;;;7.53;3.17;;;;;;;28.81;80.24;100147.47;4998210;28;20042;-55
2023/08/20 01:49:51;;;;;;;7.90;3.30;;;;;;;28.82;81.43;100151.00;5008563;28;20045;-56
2023/08/20 01:52:21;;;;;;;3.83;2.90;;;;;;;28.93;81.59;100152.66;4978503;28;20063;-55
2023/08/20 01:54:52;;;;;;;4.57;3.37;;;;;;;28.74;80.18;100148.19;4988340;28;20238;-55
2023/08/20 01:57:23;;;;;;;6.03;3.13;;;;;;;28.78;80.35;100150.44;4978226;28;20116;-55
2023/08/20 01:59:55;;;;;;;8.33;3.60;;;;;;;28.75;80.77;100153.41;4986312;28;20097;-55
2023/08/20 02:02:26;;;;;;;7.53;4.43;;;;;;;28.71;81.61;100149.34;4992926;28;20042;-55
2023/08/20 02:04:57;;;;;;;6.13;3.10;;;;;;;28.68;81.13;100155.00;4998505;28;20384;-55
2023/08/20 02:07:27;;;;;;;5.83;3.30;;;;;;;28.76;81.91;100152.44;4988959;28;20030;-55
2023/08/20 02:09:58;;;;;;;8.33;4.20;;;;;;;28.99;82.29;100152.09;4978822;28;20061;-55
2023/08/20 02:12:28;;;;;;;4.60;2.97;;;;;;;29.21;82.27;100156.28;4988373;28;20056;-55
2023/08/20 02:15:01;;;;;;;6.70;3.13;;;;;;;29.10;81.03;100134.94;4978705;28;20141;-56
2023/08/20 02:17:32;;;;;;;4.50;2.87;;;;;;;29.02;80.02;100141.03;4987733;28;20073;-55
2023/08/20 02:20:04;;;;;;;6.30;2.87;;;;;;;29.05;80.26;100140.72;4989652;28;20079;-55
2023/08/20 02:22:35;;;;;;;4.63;3.03;;;;;;;29.17;81.16;100144.94;5008312;28;20144;-55
2023/08/20 02:25:06;;;;;;;7.30;3.63;;;;;;;29.06;81.48;100115.56;4993468;28;20132;-55
2023/08/20 02:27:37;;;;;;;8.37;3.40;;;;;;;29.36;80.32;100137.81;4987544;28;20050;-55
2023/08/20 02:30:13;;;;;;;7.77;3.30;;;;;;;29.45;80.35;100131.50;4978052;28;20054;-57
2023/08/20 02:32:43;;;;;;;8.07;2.90;;;;;;;29.23;79.16;100105.84;4992582;28;20653;-57
2023/08/20 02:35:16;;;;;;;6.03;3.50;;;;;;;29.38;79.55;100131.28;4993227;28;20392;-55
2023/08/20 02:37:47;;;;;;;6.17;3.40;;;;;;;29.32;79.54;100117.56;5007868;28;20055;-55
2023/08/20 02:40:18;;;;;;;7.33;2.90;;;;;;;29.50;79.46;100129.22;4995421;28;20140;-56
2023/08/20 02:42:48;;;;;;;5.30;3.17;;;;;;;29.52;78.86;100132.59;4987502;28;20070;-56
2023/08/20 02:45:20;;;;;;;6.17;3.33;;;;;;;29.50;78.83;100118.44;4985660;28;20034;-56
2023/08/20 02:47:51;;;;;;;12.70;4.07;;;;;;;29.45;79.00;100127.00;5003691;28;20368;-55
2023/08/20 02:50:22;;;;;;;4.43;2.83;;;;;;;29.55;78.85;100124.22;5014545;28;20040;-56
2023/08/20 02:52:52;;;;;;;7.00;3.07;;;;;;;29.64;78.73;100130.56;5027202;28;20459;-56
2023/08/20 02:55:23;;;;;;;5.70;3.77;;;;;;;29.72;78.63;100119.06;5016058;28;20048;-58
2023/08/20 02:57:53;;;;;;;6.50;3.33;;;;;;;29.80;78.39;100108.34;5024292;28;20440;-57
2023/08/20 03:00:26;;;;;;;9.70;4.57;;;;;;;29.89;77.96;100102.06;5025983;28;20064;-56
2023/08/20 03:02:56;;;;;;;7.90;4.50;;;;;;;29.95;77.61;100106.81;5007560;28;20095;-56
2023/08/20 03:05:27;;;;;;;6.40;3.40;;;;;;;29.95;77.37;100101.44;5010580;28;20432;-55
2023/08/20 03:07:58;;;;;;;7.50;3.67;;;;;;;30.02;77.24;100102.50;4990787;28;20137;-56
2023/08/20 03:10:28;;;;;;;6.77;3.93;;;;;;;30.04;76.84;100097.81;5007030;28;20053;-56
2023/08/20 03:12:59;;;;;;;6.00;3.50;;;;;;;30.00;77.47;100082.94;4995882;28;20080;-56
2023/08/20 03:15:32;;;;;;;9.37;4.50;;;;;;;29.90;76.11;100071.41;5011410;28;20059;-56
2023/08/20 03:18:03;;;;;;;7.13;4.40;;;;;;;30.14;75.86;100099.59;5016168;28;20057;-56
2023/08/20 03:20:34;;;;;;;6.83;3.30;;;;;;;30.25;76.37;100099.34;5026127;28;20056;-55
2023/08/20 03:23:05;;;;;;;9.87;3.90;;;;;;;30.33;76.53;100099.44;5015713;28;20124;-56
2023/08/20 03:25:35;;;;;;;11.53;4.27;;;;;;;30.45;76.59;100098.19;5017211;28;20468;-56
2023/08/20 03:28:06;;;;;;;6.73;3.47;;;;;;;30.27;74.83;100055.06;4996246;28;20500;-56
2023/08/20 03:30:39;;;;;;;9.37;4.23;;;;;;;30.48;74.80;100097.88;5005488;28;20170;-55
2023/08/20 03:33:09;;;;;;;5.13;3.77;;;;;;;30.50;74.68;100084.22;4995528;28;20877;-56
2023/08/20 03:35:41;;;;;;;8.90;3.97;;;;;;;30.58;75.63;100088.81;5006032;28;20130;-55
2023/08/20 03:38:11;;;;;;;4.60;3.60;;;;;;;30.36;73.83;100050.59;4996008;28;20061;-55
2023/08/20 03:40:42;;;;;;;10.77;3.77;;;;;;;30.66;73.83;100088.88;5008307;28;20476;-56
2023/08/20 03:43:12;;;;;;;5.07;3.13;;;;;;;30.71;72.54;100083.84;5004095;28;20138;-56
2023/08/20 03:45:45;;;;;;;13.60;4.70;;;;;;;30.74;73.10;100075.44;5014567;28;20559;-57
2023/08/20 03:48:15;;;;;;;9.93;4.03;;;;;;;30.67;73.20;100061.72;4996717;28;20524;-57
2023/08/20 03:50:46;;;;;;;7.00;3.73;;;;;;;30.85;72.96;100077.91;5012041;28;20054;-57
2023/08/20 03:53:17;;;;;;;5.47;3.43;;;;;;;30.91;72.31;100066.44;4978225;28;20042;-55
2023/08/20 03:55:50;;;;;;;6.17;4.00;;;;;;;30.93;71.90;100063.59;4987130;28;20449;-55
2023/08/20 03:58:20;;;;;;;5.10;3.17;;;;;;;30.87;69.94;100059.69;4995266;28;20064;-56
2023/08/20 04:00:53;;;;;;;10.13;3.43;;;;;;;30.85;71.58;100042.84;4990121;28;20062;-55
2023/08/20 04:03:23;;;;;;;5.17;3.30;;;;;;;30.99;70.43;100054.84;4996047;28;20056;-56
2023/08/20 04:05:54;;;;;;;4.80;3.30;;;;;;;30.92;70.85;100057.34;5020961;28;20053;-57
2023/08/20 04:08:25;;;;;;;6.57;3.63;;;;;;;30.88;71.24;100060.53;5024800;28;20039;-56
2023/08/20 04:10:55;;;;;;;7.13;3.30;;;;;;;30.85;70.17;100056.31;5015884;28;20464;-56
2023/08/20 04:13:26;;;;;;;6.33;3.30;;;;;;;30.69;70.94;100056.19;5006456;28;20277;-56
2023/08/20 04:15:58;;;;;;;5.00;3.30;;;;;;;30.51;71.00;100021.22;4995247;28;20612;-57
2023/08/20 04:18:29;;;;;;;6.57;3.40;;;;;;;30.77;69.81;100053.53;5019570;28;20087;-58
2023/08/20 04:21:00;;;;;;;4.13;2.80;;;;;;;30.86;70.20;100058.00;5010391;28;20064;-57
2023/08/20 04:23:30;;;;;;;3.97;3.00;;;;;;;30.99;70.67;100051.31;5020945;28;21190;-58
2023/08/20 04:26:01;;;;;;;7.17;3.97;;;;;;;31.09;69.59;100052.84;5010925;28;20355;-58
2023/08/20 04:28:32;;;;;;;4.47;3.13;;;;;;;31.10;69.17;100053.69;5001430;28;20545;-58
2023/08/20 04:31:04;;;;;;;4.20;3.07;;;;;;;31.08;68.99;100051.19;5007596;28;20088;-57
2023/08/20 04:33:35;;;;;;;7.20;4.43;;;;;;;31.26;69.53;100048.38;5020997;28;20084;-58
2023/08/20 04:36:05;;;;;;;6.07;3.33;;;;;;;31.36;67.45;100038.25;5014163;28;20045;-58
2023/08/20 04:38:36;;;;;;;5.63;4.60;;;;;;;31.33;66.91;100049.41;5022846;28;20041;-58
2023/08/20 04:41:07;;;;;;;6.83;4.97;;;;;;;31.28;67.72;100035.56;5044369;28;20048;-57
2023/08/20 04:43:37;;;;;;;9.43;5.00;;;;;;;31.21;67.71;100034.53;5054448;28;20057;-58
2023/08/20 04:46:09;;;;;;;4.90;3.60;;;;;;;31.20;68.41;100032.81;5053306;28;20087;-58
2023/08/20 04:48:40;;;;;;;13.33;11.47;;;;;;;31.18;68.87;100040.25;5052739;28;20589;-57
2023/08/20 04:51:11;;;;;;;14.73;10.27;;;;;;;31.25;68.90;100029.63;5010464;28;20452;-56
2023/08/20 04:53:41;;;;;;;9.07;4.03;;;;;;;31.10;69.24;99983.53;5006054;28;20097;-57
2023/08/20 04:56:12;;;;;;;9.07;4.57;;;;;;;31.44;68.59;100023.13;4991554;28;20059;-57
2023/08/20 04:58:42;;;;;;;7.47;5.90;;;;;;;31.40;67.27;100005.56;5001535;28;20147;-57
2023/08/20 05:01:16;;;;;;;6.17;2.70;;;;;;;31.45;68.38;99997.81;4991205;28;20446;-57
2023/08/20 05:03:46;;;;;;;5.93;3.67;;;;;;;31.48;69.00;100008.31;5001359;28;20057;-56
2023/08/20 05:06:17;;;;;;;6.70;6.10;;;;;;;31.46;68.94;100004.91;4993871;28;20103;-56
2023/08/20 05:08:48;;;;;;;5.47;4.00;;;;;;;31.35;68.29;100008.72;5004602;28;20434;-57
2023/08/20 05:11:18;;;;;;;5.77;4.23;;;;;;;31.29;68.64;100004.84;4995079;28;20128;-56
2023/08/20 05:13:50;;;;;;;5.20;3.43;;;;;;;31.29;68.54;100004.84;5005336;28;20445;-57
2023/08/20 05:16:23;;;;;;;6.20;3.27;;;;;;;31.37;68.73;100018.34;5014350;28;20502;-57
2023/08/20 05:18:53;;;;;;;4.63;3.00;;;;;;;31.38;68.12;100019.22;5024376;28;20063;-57
2023/08/20 05:21:24;;;;;;;3.63;2.80;;;;;;;31.22;68.03;100020.00;5002342;28;20052;-57
2023/08/20 05:23:55;;;;;;;7.77;3.30;;;;;;;30.94;68.48;100017.56;4994504;28;20038;-57
2023/08/20 05:26:26;;;;;;;5.83;3.30;;;;;;;30.68;69.39;100001.41;5016161;28;20395;-56
2023/08/20 05:28:59;;;;;;;4.90;3.40;;;;;;;30.72;70.75;100028.91;5013528;28;20059;-57
2023/08/20 05:31:32;;;;;;;7.03;4.13;;;;;;;30.64;71.55;100028.88;5024996;28;20059;-57
2023/08/20 05:34:02;;;;;;;10.97;4.10;;;;;;;30.42;70.72;100023.00;5014096;28;20068;-57
2023/08/20 05:36:33;;;;;;;21.50;19.20;;;;;;;30.06;72.24;100006.91;5023963;28;20458;-56
2023/08/20 05:39:05;;;;;;;7.30;6.50;;;;;;;29.89;74.17;100021.25;5013365;28;20076;-57
2023/08/20 05:41:36;;;;;;;4.77;4.10;;;;;;;29.75;74.58;100019.09;5024190;28;20163;-56
2023/08/20 05:44:07;;;;;;;7.17;3.17;;;;;;;29.70;75.64;100021.41;5013795;28;20044;-57
2023/08/20 05:46:40;;;;;;;7.13;4.00;;;;;;;29.73;76.40;100021.09;5024344;28;20067;-56
2023/08/20 05:49:11;;;;;;;7.87;4.27;;;;;;;29.63;77.04;100011.25;5011528;28;20098;-55
2023/08/20 05:51:41;;;;;;;7.70;4.30;;;;;;;29.82;76.00;100020.19;5003661;28;20054;-57
2023/08/20 05:54:12;;;;;;;5.03;3.50;;;;;;;29.92;76.58;100025.47;4993828;28;20431;-56
2023/08/20 05:56:43;;;;;;;5.87;3.00;;;;;;;29.85;75.53;100041.41;5010554;28;20045;-56
2023/08/20 05:59:13;;;;;;;5.50;3.00;;;;;;;29.79;76.19;100042.03;5010719;28;20065;-56
2023/08/20 06:01:46;;;;;;;15.13;9.70;;;;;;;29.59;75.45;100038.63;5004068;28;20087;-56
2023/08/20 06:04:18;;;;;;;28.57;19.23;;;;;;;29.51;76.06;100038.56;4993701;28;20041;-57
2023/08/20 06:06:48;;;;;;;25.37;19.50;;;;;;;29.52;75.30;100043.75;5003661;28;20057;-57
2023/08/20 06:09:19;;;;;;;8.57;4.80;;;;;;;29.70;77.33;100037.56;4993073;28;20049;-57
2023/08/20 06:11:51;;;;;;;10.07;8.03;;;;;;;29.88;77.64;100041.97;5020123;28;20085;-56
2023/08/20 06:14:21;;;;;;;8.97;3.60;;;;;;;30.08;76.43;100028.31;5012575;28;20045;-57
2023/08/20 06:16:54;;;;;;;5.17;3.70;;;;;;;30.21;76.80;100030.59;5023025;28;20041;-58
2023/08/20 06:19:24;;;;;;;13.00;4.33;;;;;;;30.30;74.24;100045.84;5023157;28;20065;-57
2023/08/20 06:21:56;;;;;;;7.10;3.00;;;;;;;30.32;74.48;100049.22;5012899;28;20076;-55
2023/08/20 06:24:26;;;;;;;3.90;2.90;;;;;;;30.23;74.70;100034.81;5022873;28;20187;-57
2023/08/20 06:26:57;;;;;;;6.33;2.90;;;;;;;30.31;75.17;100036.75;5012800;28;20199;-58
2023/08/20 06:29:28;;;;;;;3.87;2.80;;;;;;;30.12;75.26;100031.53;5022341;28;20464;-57
2023/08/20 06:32:00;;;;;;;5.87;2.60;;;;;;;29.99;75.75;100048.94;5013183;28;20141;-58
2023/08/20 06:34:31;;;;;;;4.17;3.03;;;;;;;29.95;76.60;100036.78;5023453;28;20041;-58
2023/08/20 06:37:01;;;;;;;4.97;2.87;;;;;;;30.04;76.29;100035.84;4996021;28;20523;-58
2023/08/20 06:39:32;;;;;;;35.63;25.50;;;;;;;29.96;77.23;100038.50;5016461;28;20434;-58
2023/08/20 06:42:05;;;;;;;8.23;4.43;;;;;;;30.00;77.66;100045.22;5016717;28;20135;-58
2023/08/20 06:44:36;;;;;;;5.57;3.07;;;;;;;29.94;77.72;100045.88;5032151;28;20125;-57
2023/08/20 06:47:09;;;;;;;6.23;2.50;;;;;;;29.93;76.43;100054.09;5011569;28;20460;-57
2023/08/20 06:49:39;;;;;;;7.20;3.77;;;;;;;29.83;76.75;100059.56;5022888;28;20040;-57
2023/08/20 06:52:10;;;;;;;4.33;2.40;;;;;;;29.82;77.99;100058.72;5012618;28;20053;-57
2023/08/20 06:54:40;;;;;;;3.83;2.87;;;;;;;29.75;77.97;100040.66;5022466;28;20056;-56
2023/08/20 06:57:11;;;;;;;6.80;3.43;;;;;;;29.78;78.05;100045.72;5012867;28;20122;-57
2023/08/20 06:59:42;;;;;;;5.90;3.50;;;;;;;29.58;78.19;100056.63;5022188;28;20428;-57
2023/08/20 07:02:15;;;;;;;11.30;3.30;;;;;;;29.36;78.91;100057.06;5012495;28;20106;-57
2023/08/20 07:04:45;;;;;;;6.20;2.97;;;;;;;29.21;78.42;100059.44;5023083;28;20063;-58
2023/08/20 07:07:16;;;;;;;7.27;2.80;;;;;;;29.24;79.18;100054.56;5011975;28;20087;-58
2023/08/20 07:09:46;;;;;;;5.83;3.30;;;;;;;29.39;80.16;100056.75;5022533;28;20759;-58
2023/08/20 07:12:17;;;;;;;6.67;4.07;;;;;;;29.48;80.30;100045.09;5012981;28;20052;-57
2023/08/20 07:14:48;;;;;;;6.13;3.33;;;;;;;29.62;80.42;100052.63;5021964;28;20144;-58
2023/08/20 07:17:20;;;;;;;8.70;3.43;;;;;;;29.45;80.20;100042.69;5011907;28;20053;-58
2023/08/20 07:19:51;;;;;;;4.37;2.70;;;;;;;29.33;79.89;100051.97;5022852;28;20060;-57
2023/08/20 07:22:21;;;;;;;3.97;3.00;;;;;;;29.02;79.52;100055.78;5011903;28;20151;-58
2023/08/20 07:24:52;;;;;;;5.93;3.27;;;;;;;28.99;80.56;100060.63;5021784;28;20079;-56
2023/08/20 07:27:23;;;;;;;10.13;4.90;;;;;;;29.08;81.23;100059.78;5011608;28;20140;-57
2023/08/20 07:29:53;;;;;;;8.63;2.80;;;;;;;29.24;80.66;100051.88;5011041;28;20152;-58
2023/08/20 07:32:26;;;;;;;12.27;5.43;;;;;;;29.37;79.79;100047.97;5015218;28;20095;-57
2023/08/20 07:34:56;;;;;;;7.33;3.20;;;;;;;29.36;77.83;100057.06;5013344;28;20085;-56
2023/08/20 07:37:27;;;;;;;10.33;3.43;;;;;;;29.35;78.00;100071.50;5022425;28;20044;-55
2023/08/20 07:39:57;;;;;;;7.43;2.90;;;;;;;29.37;77.62;100064.13;5011125;28;20349;-58
2023/08/20 07:42:28;;;;;;;6.10;3.30;;;;;;;29.43;77.34;100063.50;5021737;28;20399;-58
2023/08/20 07:44:59;;;;;;;9.87;3.40;;;;;;;29.42;72.59;100067.22;5012493;28;20378;-58
2023/08/20 07:47:31;;;;;;;6.63;2.90;;;;;;;29.38;68.39;100065.81;5021764;28;20053;-57
2023/08/20 07:50:02;;;;;;;4.23;2.53;;;;;;;29.37;67.01;100064.13;4994462;28;20473;-57
2023/08/20 07:52:33;;;;;;;6.03;2.60;;;;;;;29.32;64.25;100077.19;5002772;28;20136;-58
2023/08/20 07:55:03;;;;;;;10.03;3.67;;;;;;;29.18;63.84;100070.47;4992385;28;20338;-58
2023/08/20 07:57:34;;;;;;;5.73;3.20;;;;;;;29.11;63.81;100075.63;5001821;28;20060;-58
2023/08/20 08:00:06;;;;;;;13.97;8.17;;;;;;;29.12;64.91;100082.69;4991764;28;20095;-57
2023/08/20 08:02:38;;;;;;;9.97;2.87;;;;;;;29.12;64.74;100082.69;5001563;28;20116;-57
2023/08/20 08:05:10;;;;;;;3.70;2.40;;;;;;;29.09;64.86;100085.66;4992094;28;20059;-58
2023/08/20 08:07:40;;;;;;;6.57;3.00;;;;;;;29.03;64.64;100083.53;5002413;28;20136;-58
2023/08/20 08:10:11;;;;;;;6.87;2.80;;;;;;;28.99;65.02;100071.38;4991960;28;20176;-56
2023/08/20 08:12:41;;;;;;;11.43;3.53;;;;;;;28.97;65.82;100084.13;5002065;28;20053;-57
2023/08/20 08:15:13;;;;;;;4.97;3.00;;;;;;;28.93;66.04;100083.59;4991456;28;20053;-57
2023/08/20 08:17:45;;;;;;;4.50;2.90;;;;;;;28.87;66.60;100072.56;5001161;28;20077;-58
2023/08/20 08:20:16;;;;;;;9.00;2.83;;;;;;;28.84;67.84;100075.56;4992206;28;20038;-58
2023/08/20 08:22:47;;;;;;;5.90;2.43;;;;;;;28.72;66.31;100075.72;5002225;28;20053;-58
2023/08/20 08:25:19;;;;;;;8.73;2.47;;;;;;;28.62;65.04;100077.59;4991611;28;20392;-58
2023/08/20 08:27:49;;;;;;;4.53;2.63;;;;;;;28.61;65.09;100086.69;5001480;28;20445;-57
2023/08/20 08:30:30;;;;;;;5.37;2.50;;;;;;;28.53;64.77;100086.53;5010540;28;20649;-57
2023/08/20 08:33:02;;;;;;;4.93;2.30;;;;;;;28.44;64.51;100076.66;5010832;28;20119;-57
2023/08/20 08:35:33;;;;;;;4.63;2.80;;;;;;;28.37;65.43;100082.59;5020510;28;20459;-58
2023/08/20 08:38:04;;;;;;;5.07;2.87;;;;;;;28.31;66.27;100088.53;5011012;28;20032;-57
2023/08/20 08:40:36;;;;;;;5.77;2.67;;;;;;;28.24;66.23;100092.78;5023678;28;20136;-56
2023/08/20 08:43:07;;;;;;;6.80;3.17;;;;;;;28.11;66.15;100097.63;5014793;28;20140;-57
2023/08/20 08:45:38;;;;;;;5.73;2.93;;;;;;;28.05;67.55;100098.16;5010782;28;20057;-56
2023/08/20 08:48:11;;;;;;;8.80;2.80;;;;;;;28.00;68.38;100095.91;4994517;28;20158;-56
2023/08/20 08:50:43;;;;;;;10.87;2.80;;;;;;;27.86;68.02;100094.50;5019902;28;20045;-57
2023/08/20 08:53:15;;;;;;;7.50;2.80;;;;;;;27.66;67.88;100104.34;5015201;28;20732;-58
2023/08/20 08:55:46;;;;;;;4.93;2.80;;;;;;;27.50;68.30;100112.91;5025744;28;20132;-57
2023/08/20 08:58:17;;;;;;;5.57;3.10;;;;;;;27.47;70.16;100115.88;5014313;28;20045;-56
2023/08/20 09:00:58;;;;;;;7.07;3.10;;;;;;;27.37;70.82;100120.38;5008336;28;21480;-57
2023/08/20 09:03:32;;;;;;;6.97;2.73;;;;;;;27.19;70.75;100127.38;4993462;28;20914;-58
2023/08/20 09:06:09;;;;;;;6.13;2.97;;;;;;;26.85;71.70;100119.56;4992313;28;20044;-57
2023/08/20 09:08:41;;;;;;;10.32;3.67;;;;;;;26.55;71.95;100131.94;5004529;28;20044;-57
2023/08/20 09:11:13;;;;;;;16.43;9.03;;;;;;;26.33;73.42;100124.84;4993998;28;20054;-57
2023/08/20 09:13:45;;;;;;;10.90;7.13;;;;;;;26.10;73.98;100129.47;5004602;28;20315;-57
2023/08/20 09:16:17;;;;;;;8.03;3.00;;;;;;;25.92;75.20;100128.34;5014814;28;20136;-56
2023/08/20 09:18:50;;;;;;;8.67;3.67;;;;;;;25.72;76.40;100141.50;5024733;28;20053;-57
2023/08/20 09:21:29;;;;;;;8.40;3.37;;;;;;;25.39;76.61;100135.22;5002291;28;20053;-57
2023/08/20 09:24:04;;;;;;;7.50;3.83;;;;;;;25.07;77.68;100135.09;5012543;28;20057;-57
2023/08/20 09:26:36;;;;;;;9.03;3.23;;;;;;;24.76;78.89;100131.28;5024087;28;20041;-57
2023/08/20 09:29:08;;;;;;;8.00;3.13;;;;;;;24.40;80.07;100140.28;5014444;28;20051;-57
2023/08/20 09:31:43;;;;;;;6.90;3.27;;;;;;;24.02;82.85;100142.22;5024927;28;20068;-57
2023/08/20 09:34:18;;;;;;;11.13;3.60;;;;;;;23.75;85.40;100146.91;5014274;28;20049;-57
2023/08/20 09:36:50;;;;;;;8.20;3.70;;;;;;;23.38;87.70;100141.53;5023901;28;20110;-56
2023/08/20 09:39:22;;;;;;;9.20;3.20;;;;;;;23.17;89.87;100160.78;4993967;28;20085;-57
2023/08/20 09:41:54;;;;;;;7.97;3.67;;;;;;;22.94;91.28;100158.81;5012455;28;20045;-58
2023/08/20 09:44:29;;;;;;;13.37;4.30;;;;;;;22.73;92.33;100161.16;4994012;28;20042;-59
2023/08/20 09:47:04;;;;;;;10.37;7.63;;;;;;;22.63;92.75;100171.59;5003634;28;20470;-58
2023/08/20 09:49:40;;;;;;;14.27;6.23;;;;;;;22.56;92.48;100170.31;5019448;28;20061;-59
2023/08/20 09:52:13;;;;;;;18.50;4.03;;;;;;;21.76;92.04;100056.72;4993163;28;20392;-58
2023/08/20 09:55:02;;;;;;;7.03;3.27;;;;;;;22.28;92.29;100177.47;5003382;28;20393;-58
2023/08/20 09:57:37;;;;;;;8.47;3.27;;;;;;;21.78;93.37;100131.09;5001087;28;20061;-59
2023/08/20 10:00:13;;;;;;;9.52;4.20;;;;;;;21.97;95.19;100179.47;4993200;28;20049;-58
2023/08/20 10:02:46;;;;;;;8.83;4.17;;;;;;;21.92;96.44;100176.25;5004390;28;20810;-59
2023/08/20 10:05:20;;;;;;;15.53;5.90;;;;;;;21.85;96.72;100180.28;4996919;28;20064;-58
2023/08/20 10:07:53;;;;;;;9.93;5.73;;;;;;;21.76;96.82;100180.84;5024200;28;20044;-58
2023/08/20 10:10:24;;;;;;;12.37;5.43;;;;;;;21.60;96.29;100185.47;5017954;28;20076;-57
2023/08/20 10:12:56;;;;;;;8.00;3.90;;;;;;;21.23;97.62;100191.22;5013519;28;20039;-58
2023/08/20 10:15:28;;;;;;;7.17;4.00;;;;;;;21.03;98.72;100197.78;5022903;28;20056;-58
2023/08/20 10:18:00;;;;;;;7.63;3.43;;;;;;;20.91;100.00;100203.81;5012887;28;20065;-58
2023/08/20 10:20:34;;;;;;;9.50;4.17;;;;;;;20.87;100.00;100194.34;5009507;28;20291;-58
2023/08/20 10:23:06;;;;;;;7.07;3.70;;;;;;;20.85;100.00;100190.94;4993617;28;20350;-58
2023/08/20 10:25:46;;;;;;;4.67;3.37;;;;;;;20.56;100.00;100151.03;5004217;28;20351;-59
2023/08/20 10:28:24;;;;;;;5.77;2.87;;;;;;;20.82;100.00;100193.78;5013259;28;20287;-59
2023/08/20 10:31:10;;;;;;;8.10;3.80;;;;;;;20.78;100.00;100200.22;5014744;28;20625;-59
2023/08/20 10:33:52;;;;;;;11.07;3.77;;;;;;;20.62;100.00;100203.78;5022891;28;20369;-59
2023/08/20 10:36:28;;;;;;;9.60;3.40;;;;;;;20.51;100.00;100200.84;5012959;28;20283;-59
2023/08/20 10:39:08;;;;;;;5.40;3.60;;;;;;;20.31;100.00;100204.66;5011989;28;20295;-59
2023/08/20 10:41:40;;;;;;;12.03;4.00;;;;;;;20.18;100.00;100203.66;5003356;28;20292;-57
2023/08/20 10:44:12;;;;;;;6.10;4.13;;;;;;;20.12;100.00;100207.53;4993130;28;20299;-58
2023/08/20 10:46:53;;;;;;;7.33;3.90;;;;;;;20.10;100.00;100219.19;5010603;28;20300;-58
2023/08/20 10:49:25;;;;;;;7.50;4.40;;;;;;;20.01;100.00;100217.88;5012066;28;20283;-58
2023/08/20 10:52:04;;;;;;;9.93;3.90;;;;;;;19.95;100.00;100208.47;5012943;28;20291;-58
2023/08/20 10:54:36;;;;;;;5.95;4.00;;;;;;;19.94;100.00;100216.50;5022351;28;20474;-58
2023/08/20 10:57:08;;;;;;;7.27;4.67;;;;;;;19.89;100.00;100203.50;5014034;28;20044;-57
2023/08/20 10:59:43;;;;;;;7.83;3.30;;;;;;;19.82;100.00;100208.31;5019142;28;20342;-59
2023/08/20 11:02:18;;;;;;;5.70;3.63;;;;;;;19.81;100.00;100216.34;5012666;28;20302;-58
2023/08/20 11:04:50;;;;;;;7.57;3.37;;;;;;;19.77;100.00;100220.97;5021996;28;20276;-58
2023/08/20 11:07:27;;;;;;;4.40;3.60;;;;;;;19.74;100.00;100215.81;4991742;28;20276;-59
2023/08/20 11:10:00;;;;;;;6.23;3.70;;;;;;;19.81;100.00;100227.78;5010334;28;20969;-58
2023/08/20 11:12:32;;;;;;;9.93;3.87;;;;;;;19.83;100.00;100231.22;5022069;28;20310;-59
2023/08/20 11:15:05;;;;;;;8.63;4.20;;;;;;;19.82;100.00;100229.53;5012732;28;20287;-58
2023/08/20 11:17:37;;;;;;;9.90;4.50;;;;;;;19.79;100.00;100229.69;5021111;28;20288;-58
2023/08/20 11:20:09;;;;;;;8.07;4.70;;;;;;;19.71;100.00;100229.25;5012864;28;20284;-59
2023/08/20 11:22:44;;;;;;;7.33;4.80;;;;;;;19.36;100.00;100178.97;5022527;28;20288;-58
2023/08/20 11:25:16;;;;;;;8.37;4.53;;;;;;;19.59;100.00;100232.53;4992073;28;20947;-58
2023/08/20 11:27:47;;;;;;;9.90;5.07;;;;;;;19.49;100.00;100226.88;5017199;28;20639;-58
2023/08/20 11:30:20;;;;;;;10.47;4.93;;;;;;;19.37;100.00;100233.72;4991473;28;20290;-59
2023/08/20 11:32:52;;;;;;;12.27;6.13;;;;;;;19.29;100.00;100235.88;5010201;28;20362;-59
2023/08/20 11:35:25;;;;;;;15.23;7.43;;;;;;;19.30;100.00;100237.63;5003773;28;20750;-58
2023/08/20 11:37:58;;;;;;;25.77;10.30;;;;;;;19.28;100.00;100239.47;5012598;28;20757;-58
2023/08/20 11:40:30;;;;;;;25.40;12.07;;;;;;;18.96;100.00;100191.69;5021911;28;20279;-58
2023/08/20 11:43:03;;;;;;;14.40;7.67;;;;;;;19.07;100.00;100245.88;5011879;28;20658;-58